sensor_id;sensor_type;location;lat;lon;timestamp;temperature;humidity
21331;DHT22;10824;51.632;4.950;2023-04-21T00:00:02;8.50;64.40
21331;DHT22;10824;51.632;4.950;2023-04-21T00:02:33;8.40;65.40
21331;DHT22;10824;51.632;4.950;2023-04-21T00:05:08;8.30;66.60
21331;DHT22;10824;51.632;4.950;2023-04-21T00:07:36;8.30;70.90
21331;DHT22;10824;51.632;4.950;2023-04-21T00:10:05;8.40;73.80
21331;DHT22;10824;51.632;4.950;2023-04-21T00:12:33;8.30;75.00
21331;DHT22;10824;51.632;4.950;2023-04-21T00:15:00;8.40;76.30
21331;DHT22;10824;51.632;4.950;2023-04-21T00:17:27;8.30;78.00
21331;DHT22;10824;51.632;4.950;2023-04-21T00:19:54;8.30;81.00
21331;DHT22;10824;51.632;4.950;2023-04-21T00:22:21;8.30;83.50
21331;DHT22;10824;51.632;4.950;2023-04-21T00:24:48;8.30;83.50
21331;DHT22;10824;51.632;4.950;2023-04-21T00:27:15;8.40;81.80
21331;DHT22;10824;51.632;4.950;2023-04-21T00:29:43;8.30;82.90
21331;DHT22;10824;51.632;4.950;2023-04-21T00:32:10;8.30;83.50
21331;DHT22;10824;51.632;4.950;2023-04-21T00:34:37;8.30;85.80
21331;DHT22;10824;51.632;4.950;2023-04-21T00:37:04;8.40;86.80
21331;DHT22;10824;51.632;4.950;2023-04-21T00:39:31;8.40;87.30
21331;DHT22;10824;51.632;4.950;2023-04-21T00:41:58;8.30;86.90
21331;DHT22;10824;51.632;4.950;2023-04-21T00:44:26;8.30;88.30
21331;DHT22;10824;51.632;4.950;2023-04-21T00:46:53;8.30;88.70
21331;DHT22;10824;51.632;4.950;2023-04-21T00:49:21;8.30;87.90
21331;DHT22;10824;51.632;4.950;2023-04-21T00:51:50;8.30;87.80
21331;DHT22;10824;51.632;4.950;2023-04-21T00:54:18;8.30;88.60
21331;DHT22;10824;51.632;4.950;2023-04-21T00:56:45;8.20;89.00
21331;DHT22;10824;51.632;4.950;2023-04-21T00:59:12;8.30;90.60
21331;DHT22;10824;51.632;4.950;2023-04-21T01:01:39;8.30;90.90
21331;DHT22;10824;51.632;4.950;2023-04-21T01:04:07;8.20;91.90
21331;DHT22;10824;51.632;4.950;2023-04-21T01:06:36;8.30;92.60
21331;DHT22;10824;51.632;4.950;2023-04-21T01:09:04;8.30;93.10
21331;DHT22;10824;51.632;4.950;2023-04-21T01:11:31;8.30;92.60
21331;DHT22;10824;51.632;4.950;2023-04-21T01:13:59;8.30;91.80
21331;DHT22;10824;51.632;4.950;2023-04-21T01:16:26;8.30;92.80
21331;DHT22;10824;51.632;4.950;2023-04-21T01:18:53;8.40;93.30
21331;DHT22;10824;51.632;4.950;2023-04-21T01:21:21;8.40;92.80
21331;DHT22;10824;51.632;4.950;2023-04-21T01:23:49;8.30;93.60
21331;DHT22;10824;51.632;4.950;2023-04-21T01:26:17;8.30;94.40
21331;DHT22;10824;51.632;4.950;2023-04-21T01:28:45;8.30;95.30
21331;DHT22;10824;51.632;4.950;2023-04-21T01:31:16;8.30;94.40
21331;DHT22;10824;51.632;4.950;2023-04-21T01:33:44;8.20;94.70
21331;DHT22;10824;51.632;4.950;2023-04-21T01:36:11;8.30;95.60
21331;DHT22;10824;51.632;4.950;2023-04-21T01:38:40;8.20;95.80
21331;DHT22;10824;51.632;4.950;2023-04-21T01:41:08;8.20;96.60
21331;DHT22;10824;51.632;4.950;2023-04-21T01:43:35;8.20;96.80
21331;DHT22;10824;51.632;4.950;2023-04-21T01:46:04;8.20;96.40
21331;DHT22;10824;51.632;4.950;2023-04-21T01:48:31;8.20;96.40
21331;DHT22;10824;51.632;4.950;2023-04-21T01:50:58;8.10;96.10
21331;DHT22;10824;51.632;4.950;2023-04-21T01:53:25;8.00;94.30
21331;DHT22;10824;51.632;4.950;2023-04-21T01:55:52;7.90;92.40
21331;DHT22;10824;51.632;4.950;2023-04-21T01:58:20;7.90;91.10
21331;DHT22;10824;51.632;4.950;2023-04-21T02:00:47;8.00;91.60
21331;DHT22;10824;51.632;4.950;2023-04-21T02:03:14;8.00;90.70
21331;DHT22;10824;51.632;4.950;2023-04-21T02:05:44;8.10;90.70
21331;DHT22;10824;51.632;4.950;2023-04-21T02:08:12;8.00;90.60
21331;DHT22;10824;51.632;4.950;2023-04-21T02:10:40;8.10;91.50
21331;DHT22;10824;51.632;4.950;2023-04-21T02:13:10;8.10;92.10
21331;DHT22;10824;51.632;4.950;2023-04-21T02:15:37;8.10;92.50
21331;DHT22;10824;51.632;4.950;2023-04-21T02:18:05;8.10;92.10
21331;DHT22;10824;51.632;4.950;2023-04-21T02:20:34;8.10;91.00
21331;DHT22;10824;51.632;4.950;2023-04-21T02:23:01;8.10;89.90
21331;DHT22;10824;51.632;4.950;2023-04-21T02:25:28;8.10;88.50
21331;DHT22;10824;51.632;4.950;2023-04-21T02:27:56;8.00;87.00
21331;DHT22;10824;51.632;4.950;2023-04-21T02:30:26;8.00;88.20
21331;DHT22;10824;51.632;4.950;2023-04-21T02:32:53;8.00;88.00
21331;DHT22;10824;51.632;4.950;2023-04-21T02:35:20;8.00;88.80
21331;DHT22;10824;51.632;4.950;2023-04-21T02:37:49;7.90;88.60
21331;DHT22;10824;51.632;4.950;2023-04-21T02:40:16;7.90;89.00
21331;DHT22;10824;51.632;4.950;2023-04-21T02:42:43;7.80;89.90
21331;DHT22;10824;51.632;4.950;2023-04-21T02:45:10;7.90;90.00
21331;DHT22;10824;51.632;4.950;2023-04-21T02:47:37;7.90;90.50
21331;DHT22;10824;51.632;4.950;2023-04-21T02:50:05;8.00;90.20
21331;DHT22;10824;51.632;4.950;2023-04-21T02:52:35;8.00;87.50
21331;DHT22;10824;51.632;4.950;2023-04-21T02:55:04;8.00;86.20
21331;DHT22;10824;51.632;4.950;2023-04-21T02:57:31;8.00;87.80
21331;DHT22;10824;51.632;4.950;2023-04-21T02:59:58;8.00;88.30
21331;DHT22;10824;51.632;4.950;2023-04-21T03:02:27;8.00;89.60
21331;DHT22;10824;51.632;4.950;2023-04-21T03:04:54;7.90;90.40
21331;DHT22;10824;51.632;4.950;2023-04-21T03:07:22;7.90;90.10
21331;DHT22;10824;51.632;4.950;2023-04-21T03:09:49;8.00;90.10
21331;DHT22;10824;51.632;4.950;2023-04-21T03:12:16;8.00;89.90
21331;DHT22;10824;51.632;4.950;2023-04-21T03:14:43;8.00;89.60
21331;DHT22;10824;51.632;4.950;2023-04-21T03:17:10;7.90;88.90
21331;DHT22;10824;51.632;4.950;2023-04-21T03:19:37;8.00;89.80
21331;DHT22;10824;51.632;4.950;2023-04-21T03:22:04;7.90;90.60
21331;DHT22;10824;51.632;4.950;2023-04-21T03:24:32;8.00;90.40
21331;DHT22;10824;51.632;4.950;2023-04-21T03:27:00;7.90;90.00
21331;DHT22;10824;51.632;4.950;2023-04-21T03:29:28;8.00;89.20
21331;DHT22;10824;51.632;4.950;2023-04-21T03:31:57;8.00;89.80
21331;DHT22;10824;51.632;4.950;2023-04-21T03:34:24;7.90;89.40
21331;DHT22;10824;51.632;4.950;2023-04-21T03:36:52;7.90;89.30
21331;DHT22;10824;51.632;4.950;2023-04-21T03:39:20;7.90;89.10
21331;DHT22;10824;51.632;4.950;2023-04-21T03:41:49;7.90;90.40
21331;DHT22;10824;51.632;4.950;2023-04-21T03:44:17;7.80;91.90
21331;DHT22;10824;51.632;4.950;2023-04-21T03:46:44;7.90;92.00
21331;DHT22;10824;51.632;4.950;2023-04-21T03:49:11;7.90;91.30
21331;DHT22;10824;51.632;4.950;2023-04-21T03:51:38;7.80;90.50
21331;DHT22;10824;51.632;4.950;2023-04-21T03:54:05;7.90;90.00
21331;DHT22;10824;51.632;4.950;2023-04-21T03:56:32;7.90;89.70
21331;DHT22;10824;51.632;4.950;2023-04-21T03:58:59;7.90;90.60
21331;DHT22;10824;51.632;4.950;2023-04-21T04:01:26;7.90;91.60
21331;DHT22;10824;51.632;4.950;2023-04-21T04:03:53;8.00;92.70
21331;DHT22;10824;51.632;4.950;2023-04-21T04:06:20;7.90;94.40
21331;DHT22;10824;51.632;4.950;2023-04-21T04:08:47;7.90;94.90
21331;DHT22;10824;51.632;4.950;2023-04-21T04:11:14;8.00;95.80
21331;DHT22;10824;51.632;4.950;2023-04-21T04:13:41;7.90;95.40
21331;DHT22;10824;51.632;4.950;2023-04-21T04:16:08;7.90;97.40
21331;DHT22;10824;51.632;4.950;2023-04-21T04:18:35;7.90;97.70
21331;DHT22;10824;51.632;4.950;2023-04-21T04:21:06;7.90;97.80
21331;DHT22;10824;51.632;4.950;2023-04-21T04:23:34;7.90;99.90
21331;DHT22;10824;51.632;4.950;2023-04-21T04:26:02;7.90;99.90
21331;DHT22;10824;51.632;4.950;2023-04-21T04:28:31;7.90;99.90
21331;DHT22;10824;51.632;4.950;2023-04-21T04:30:59;7.90;99.90
21331;DHT22;10824;51.632;4.950;2023-04-21T04:33:26;7.90;99.90
21331;DHT22;10824;51.632;4.950;2023-04-21T04:35:53;7.80;99.90
21331;DHT22;10824;51.632;4.950;2023-04-21T04:38:20;7.90;99.90
21331;DHT22;10824;51.632;4.950;2023-04-21T04:40:55;7.90;99.90
21331;DHT22;10824;51.632;4.950;2023-04-21T04:43:23;7.90;99.90
21331;DHT22;10824;51.632;4.950;2023-04-21T04:45:51;7.80;99.90
21331;DHT22;10824;51.632;4.950;2023-04-21T04:48:19;7.90;99.90
21331;DHT22;10824;51.632;4.950;2023-04-21T04:50:46;7.90;99.90
21331;DHT22;10824;51.632;4.950;2023-04-21T04:53:13;7.90;99.90
21331;DHT22;10824;51.632;4.950;2023-04-21T04:55:40;7.90;99.90
21331;DHT22;10824;51.632;4.950;2023-04-21T04:58:07;7.90;99.90
21331;DHT22;10824;51.632;4.950;2023-04-21T05:00:34;7.90;99.90
21331;DHT22;10824;51.632;4.950;2023-04-21T05:03:02;7.90;99.90
21331;DHT22;10824;51.632;4.950;2023-04-21T05:05:30;8.00;99.90
21331;DHT22;10824;51.632;4.950;2023-04-21T05:07:57;8.00;99.90
21331;DHT22;10824;51.632;4.950;2023-04-21T05:10:24;8.00;99.90
21331;DHT22;10824;51.632;4.950;2023-04-21T05:12:51;8.00;99.90
21331;DHT22;10824;51.632;4.950;2023-04-21T05:15:18;7.90;99.90
21331;DHT22;10824;51.632;4.950;2023-04-21T05:17:45;7.90;99.90
21331;DHT22;10824;51.632;4.950;2023-04-21T05:20:12;7.90;99.90
21331;DHT22;10824;51.632;4.950;2023-04-21T05:22:39;8.00;99.90
21331;DHT22;10824;51.632;4.950;2023-04-21T05:25:08;8.00;99.90
21331;DHT22;10824;51.632;4.950;2023-04-21T05:27:36;8.00;99.90
21331;DHT22;10824;51.632;4.950;2023-04-21T05:30:03;8.00;99.90
21331;DHT22;10824;51.632;4.950;2023-04-21T05:32:30;8.00;99.90
21331;DHT22;10824;51.632;4.950;2023-04-21T05:34:57;8.00;99.90
21331;DHT22;10824;51.632;4.950;2023-04-21T05:37:26;8.00;99.90
21331;DHT22;10824;51.632;4.950;2023-04-21T05:39:53;8.10;99.90
21331;DHT22;10824;51.632;4.950;2023-04-21T05:42:20;8.10;99.90
21331;DHT22;10824;51.632;4.950;2023-04-21T05:44:48;8.10;99.90
21331;DHT22;10824;51.632;4.950;2023-04-21T05:47:15;8.10;99.90
21331;DHT22;10824;51.632;4.950;2023-04-21T05:49:43;8.10;99.90
21331;DHT22;10824;51.632;4.950;2023-04-21T05:52:16;8.10;99.90
21331;DHT22;10824;51.632;4.950;2023-04-21T05:54:43;8.10;99.90
21331;DHT22;10824;51.632;4.950;2023-04-21T05:57:10;8.10;99.90
21331;DHT22;10824;51.632;4.950;2023-04-21T05:59:37;8.20;99.90
21331;DHT22;10824;51.632;4.950;2023-04-21T06:02:05;8.20;99.90
21331;DHT22;10824;51.632;4.950;2023-04-21T06:04:32;8.20;99.90
21331;DHT22;10824;51.632;4.950;2023-04-21T06:07:07;8.20;99.90
21331;DHT22;10824;51.632;4.950;2023-04-21T06:09:35;8.20;99.90
21331;DHT22;10824;51.632;4.950;2023-04-21T06:12:02;8.20;99.90
21331;DHT22;10824;51.632;4.950;2023-04-21T06:14:29;8.30;99.90
21331;DHT22;10824;51.632;4.950;2023-04-21T06:16:58;8.30;99.90
21331;DHT22;10824;51.632;4.950;2023-04-21T06:19:25;8.40;99.90
21331;DHT22;10824;51.632;4.950;2023-04-21T06:21:52;8.30;99.90
21331;DHT22;10824;51.632;4.950;2023-04-21T06:24:19;8.40;99.90
21331;DHT22;10824;51.632;4.950;2023-04-21T06:26:52;8.40;99.90
21331;DHT22;10824;51.632;4.950;2023-04-21T06:29:19;8.40;99.90
21331;DHT22;10824;51.632;4.950;2023-04-21T06:31:46;8.40;99.90
21331;DHT22;10824;51.632;4.950;2023-04-21T06:34:14;8.50;99.90
21331;DHT22;10824;51.632;4.950;2023-04-21T06:36:41;8.50;99.90
21331;DHT22;10824;51.632;4.950;2023-04-21T06:39:08;8.50;99.90
21331;DHT22;10824;51.632;4.950;2023-04-21T06:41:35;8.60;99.90
21331;DHT22;10824;51.632;4.950;2023-04-21T06:44:02;8.60;99.90
21331;DHT22;10824;51.632;4.950;2023-04-21T06:46:29;8.60;99.90
21331;DHT22;10824;51.632;4.950;2023-04-21T06:48:57;8.60;99.90
21331;DHT22;10824;51.632;4.950;2023-04-21T06:51:24;8.60;99.90
21331;DHT22;10824;51.632;4.950;2023-04-21T06:53:51;8.60;99.90
21331;DHT22;10824;51.632;4.950;2023-04-21T06:56:18;8.70;99.90
21331;DHT22;10824;51.632;4.950;2023-04-21T06:58:46;8.70;99.90
21331;DHT22;10824;51.632;4.950;2023-04-21T07:01:13;8.80;99.90
21331;DHT22;10824;51.632;4.950;2023-04-21T07:03:41;8.80;99.90
21331;DHT22;10824;51.632;4.950;2023-04-21T07:06:08;8.80;99.90
21331;DHT22;10824;51.632;4.950;2023-04-21T07:08:36;8.80;99.90
21331;DHT22;10824;51.632;4.950;2023-04-21T07:11:03;8.80;99.90
21331;DHT22;10824;51.632;4.950;2023-04-21T07:13:39;8.90;99.90
21331;DHT22;10824;51.632;4.950;2023-04-21T07:16:12;8.90;99.90
21331;DHT22;10824;51.632;4.950;2023-04-21T07:18:40;8.90;99.90
21331;DHT22;10824;51.632;4.950;2023-04-21T07:21:07;9.00;99.90
21331;DHT22;10824;51.632;4.950;2023-04-21T07:23:34;9.10;99.90
21331;DHT22;10824;51.632;4.950;2023-04-21T07:26:01;9.20;99.90
21331;DHT22;10824;51.632;4.950;2023-04-21T07:28:28;9.20;99.90
21331;DHT22;10824;51.632;4.950;2023-04-21T07:30:55;9.30;99.70
21331;DHT22;10824;51.632;4.950;2023-04-21T07:33:23;9.30;98.50
21331;DHT22;10824;51.632;4.950;2023-04-21T07:35:50;9.30;96.20
21331;DHT22;10824;51.632;4.950;2023-04-21T07:38:17;9.30;93.80
21331;DHT22;10824;51.632;4.950;2023-04-21T07:40:44;9.30;94.50
21331;DHT22;10824;51.632;4.950;2023-04-21T07:43:11;9.50;96.00
21331;DHT22;10824;51.632;4.950;2023-04-21T07:45:38;9.60;94.30
21331;DHT22;10824;51.632;4.950;2023-04-21T07:48:05;9.60;92.10
21331;DHT22;10824;51.632;4.950;2023-04-21T07:50:33;9.70;92.20
21331;DHT22;10824;51.632;4.950;2023-04-21T07:53:03;9.90;91.70
21331;DHT22;10824;51.632;4.950;2023-04-21T07:55:31;10.00;86.70
21331;DHT22;10824;51.632;4.950;2023-04-21T07:57:58;9.90;84.50
21331;DHT22;10824;51.632;4.950;2023-04-21T08:00:25;10.10;84.60
21331;DHT22;10824;51.632;4.950;2023-04-21T08:02:52;10.20;83.50
21331;DHT22;10824;51.632;4.950;2023-04-21T08:05:19;10.30;80.20
21331;DHT22;10824;51.632;4.950;2023-04-21T08:07:47;10.30;79.50
21331;DHT22;10824;51.632;4.950;2023-04-21T08:10:14;10.40;80.80
21331;DHT22;10824;51.632;4.950;2023-04-21T08:12:41;10.60;77.30
21331;DHT22;10824;51.632;4.950;2023-04-21T08:15:08;10.60;73.10
21331;DHT22;10824;51.632;4.950;2023-04-21T08:17:38;10.70;74.00
21331;DHT22;10824;51.632;4.950;2023-04-21T08:20:05;10.80;71.90
21331;DHT22;10824;51.632;4.950;2023-04-21T08:22:33;10.90;67.40
21331;DHT22;10824;51.632;4.950;2023-04-21T08:25:05;11.10;68.60
21331;DHT22;10824;51.632;4.950;2023-04-21T08:27:32;11.30;65.90
21331;DHT22;10824;51.632;4.950;2023-04-21T08:29:59;11.20;58.90
21331;DHT22;10824;51.632;4.950;2023-04-21T08:32:26;11.30;57.70
21331;DHT22;10824;51.632;4.950;2023-04-21T08:34:53;11.40;55.50
21331;DHT22;10824;51.632;4.950;2023-04-21T08:37:21;11.50;56.00
21331;DHT22;10824;51.632;4.950;2023-04-21T08:39:49;11.40;53.90
21331;DHT22;10824;51.632;4.950;2023-04-21T08:42:17;11.40;55.50
21331;DHT22;10824;51.632;4.950;2023-04-21T08:44:45;11.50;56.50
21331;DHT22;10824;51.632;4.950;2023-04-21T08:47:13;11.30;54.40
21331;DHT22;10824;51.632;4.950;2023-04-21T08:49:42;11.50;54.40
21331;DHT22;10824;51.632;4.950;2023-04-21T08:52:12;11.80;53.70
21331;DHT22;10824;51.632;4.950;2023-04-21T08:54:42;11.90;47.40
21331;DHT22;10824;51.632;4.950;2023-04-21T08:57:09;12.10;45.40
21331;DHT22;10824;51.632;4.950;2023-04-21T08:59:39;12.20;49.10
21331;DHT22;10824;51.632;4.950;2023-04-21T09:02:24;12.40;46.90
21331;DHT22;10824;51.632;4.950;2023-04-21T09:04:52;12.50;45.80
21331;DHT22;10824;51.632;4.950;2023-04-21T09:07:36;12.50;44.60
21331;DHT22;10824;51.632;4.950;2023-04-21T09:10:05;12.50;46.10
21331;DHT22;10824;51.632;4.950;2023-04-21T09:12:38;12.60;44.60
21331;DHT22;10824;51.632;4.950;2023-04-21T09:15:07;12.60;43.90
21331;DHT22;10824;51.632;4.950;2023-04-21T09:17:36;12.60;40.00
21331;DHT22;10824;51.632;4.950;2023-04-21T09:20:15;12.90;41.60
21331;DHT22;10824;51.632;4.950;2023-04-21T09:22:43;13.10;38.00
21331;DHT22;10824;51.632;4.950;2023-04-21T09:25:15;13.00;36.50
21331;DHT22;10824;51.632;4.950;2023-04-21T09:27:44;13.00;35.50
21331;DHT22;10824;51.632;4.950;2023-04-21T09:30:11;13.30;37.50
21331;DHT22;10824;51.632;4.950;2023-04-21T09:32:39;13.30;33.50
21331;DHT22;10824;51.632;4.950;2023-04-21T09:35:10;13.60;35.70
21331;DHT22;10824;51.632;4.950;2023-04-21T09:37:38;13.30;31.10
21331;DHT22;10824;51.632;4.950;2023-04-21T09:40:06;13.50;33.80
21331;DHT22;10824;51.632;4.950;2023-04-21T09:42:33;13.50;31.20
21331;DHT22;10824;51.632;4.950;2023-04-21T09:45:07;13.80;30.80
21331;DHT22;10824;51.632;4.950;2023-04-21T09:47:58;13.90;28.60
21331;DHT22;10824;51.632;4.950;2023-04-21T09:50:29;14.20;31.50
21331;DHT22;10824;51.632;4.950;2023-04-21T09:52:59;14.20;29.40
21331;DHT22;10824;51.632;4.950;2023-04-21T09:55:28;14.00;24.80
21331;DHT22;10824;51.632;4.950;2023-04-21T09:57:58;14.10;24.60
21331;DHT22;10824;51.632;4.950;2023-04-21T10:00:27;14.10;24.10
21331;DHT22;10824;51.632;4.950;2023-04-21T10:02:57;14.30;21.90
21331;DHT22;10824;51.632;4.950;2023-04-21T10:05:27;14.30;20.50
21331;DHT22;10824;51.632;4.950;2023-04-21T10:07:57;14.30;18.60
21331;DHT22;10824;51.632;4.950;2023-04-21T10:10:27;14.70;24.40
21331;DHT22;10824;51.632;4.950;2023-04-21T10:12:54;14.80;22.60
21331;DHT22;10824;51.632;4.950;2023-04-21T10:15:33;15.10;19.20
21331;DHT22;10824;51.632;4.950;2023-04-21T10:18:19;14.90;18.20
21331;DHT22;10824;51.632;4.950;2023-04-21T10:21:10;14.90;17.60
21331;DHT22;10824;51.632;4.950;2023-04-21T10:23:42;14.90;17.40
21331;DHT22;10824;51.632;4.950;2023-04-21T10:26:31;14.80;19.60
21331;DHT22;10824;51.632;4.950;2023-04-21T10:29:00;15.10;19.20
21331;DHT22;10824;51.632;4.950;2023-04-21T10:31:30;14.90;17.20
21331;DHT22;10824;51.632;4.950;2023-04-21T10:39:31;15.30;14.70
21331;DHT22;10824;51.632;4.950;2023-04-21T10:44:42;15.50;15.40
21331;DHT22;10824;51.632;4.950;2023-04-21T10:47:09;15.50;14.00
21331;DHT22;10824;51.632;4.950;2023-04-21T10:49:38;15.30;12.80
21331;DHT22;10824;51.632;4.950;2023-04-21T10:52:07;15.20;14.00
21331;DHT22;10824;51.632;4.950;2023-04-21T10:57:10;15.60;12.40
21331;DHT22;10824;51.632;4.950;2023-04-21T10:59:38;15.90;14.90
21331;DHT22;10824;51.632;4.950;2023-04-21T11:02:15;16.00;13.80
21331;DHT22;10824;51.632;4.950;2023-04-21T11:04:43;15.90;13.30
21331;DHT22;10824;51.632;4.950;2023-04-21T11:07:17;16.20;12.70
21331;DHT22;10824;51.632;4.950;2023-04-21T11:09:47;16.30;12.40
21331;DHT22;10824;51.632;4.950;2023-04-21T11:12:15;16.50;9.90
21331;DHT22;10824;51.632;4.950;2023-04-21T11:14:46;16.10;7.80
21331;DHT22;10824;51.632;4.950;2023-04-21T11:17:17;15.90;6.50
21331;DHT22;10824;51.632;4.950;2023-04-21T11:19:46;15.90;9.70
21331;DHT22;10824;51.632;4.950;2023-04-21T11:22:16;15.70;9.30
21331;DHT22;10824;51.632;4.950;2023-04-21T11:24:44;15.80;8.50
21331;DHT22;10824;51.632;4.950;2023-04-21T11:27:12;15.80;5.30
21331;DHT22;10824;51.632;4.950;2023-04-21T11:29:40;15.60;7.90
21331;DHT22;10824;51.632;4.950;2023-04-21T11:32:08;15.60;8.70
21331;DHT22;10824;51.632;4.950;2023-04-21T11:34:38;15.90;7.30
21331;DHT22;10824;51.632;4.950;2023-04-21T11:37:11;16.30;1.00
21331;DHT22;10824;51.632;4.950;2023-04-21T11:39:40;16.50;1.20
21331;DHT22;10824;51.632;4.950;2023-04-21T11:42:08;16.90;5.00
21331;DHT22;10824;51.632;4.950;2023-04-21T11:44:42;17.10;1.00
21331;DHT22;10824;51.632;4.950;2023-04-21T11:47:13;17.00;3.40
21331;DHT22;10824;51.632;4.950;2023-04-21T11:49:48;16.80;3.50
21331;DHT22;10824;51.632;4.950;2023-04-21T11:52:35;16.80;2.30
21331;DHT22;10824;51.632;4.950;2023-04-21T11:55:07;16.80;2.40
21331;DHT22;10824;51.632;4.950;2023-04-21T11:57:38;16.90;1.70
21331;DHT22;10824;51.632;4.950;2023-04-21T12:00:09;17.30;1.00
21331;DHT22;10824;51.632;4.950;2023-04-21T12:02:37;17.50;1.00
21331;DHT22;10824;51.632;4.950;2023-04-21T12:05:12;17.60;1.00
21331;DHT22;10824;51.632;4.950;2023-04-21T12:07:44;17.50;1.50
21331;DHT22;10824;51.632;4.950;2023-04-21T12:10:17;17.30;1.00
21331;DHT22;10824;51.632;4.950;2023-04-21T12:12:45;17.20;1.00
21331;DHT22;10824;51.632;4.950;2023-04-21T12:15:17;17.00;1.00
21331;DHT22;10824;51.632;4.950;2023-04-21T12:17:47;16.90;1.00
21331;DHT22;10824;51.632;4.950;2023-04-21T12:20:16;17.20;1.00
21331;DHT22;10824;51.632;4.950;2023-04-21T12:22:43;17.50;1.00
21331;DHT22;10824;51.632;4.950;2023-04-21T12:25:11;17.70;1.00
21331;DHT22;10824;51.632;4.950;2023-04-21T12:27:50;17.90;1.00
21331;DHT22;10824;51.632;4.950;2023-04-21T12:30:19;18.10;1.00
21331;DHT22;10824;51.632;4.950;2023-04-21T12:32:46;18.00;1.00
21331;DHT22;10824;51.632;4.950;2023-04-21T12:35:14;18.20;1.00
21331;DHT22;10824;51.632;4.950;2023-04-21T12:37:41;18.10;1.00
21331;DHT22;10824;51.632;4.950;2023-04-21T12:40:08;18.20;1.00
21331;DHT22;10824;51.632;4.950;2023-04-21T12:42:36;18.10;1.00
21331;DHT22;10824;51.632;4.950;2023-04-21T12:45:05;18.30;1.00
21331;DHT22;10824;51.632;4.950;2023-04-21T12:47:36;18.00;1.00
21331;DHT22;10824;51.632;4.950;2023-04-21T12:50:03;17.80;1.00
21331;DHT22;10824;51.632;4.950;2023-04-21T12:52:31;17.50;1.00
21331;DHT22;10824;51.632;4.950;2023-04-21T12:54:58;17.00;1.00
21331;DHT22;10824;51.632;4.950;2023-04-21T12:57:25;17.10;1.00
21331;DHT22;10824;51.632;4.950;2023-04-21T12:59:52;17.30;1.00
21331;DHT22;10824;51.632;4.950;2023-04-21T13:02:19;17.30;1.00
21331;DHT22;10824;51.632;4.950;2023-04-21T13:04:47;17.30;1.00
21331;DHT22;10824;51.632;4.950;2023-04-21T13:07:24;17.70;1.00
21331;DHT22;10824;51.632;4.950;2023-04-21T13:10:18;18.00;1.00
21331;DHT22;10824;51.632;4.950;2023-04-21T13:12:45;18.10;1.00
21331;DHT22;10824;51.632;4.950;2023-04-21T13:15:12;18.00;1.00
21331;DHT22;10824;51.632;4.950;2023-04-21T13:17:39;18.00;1.00
21331;DHT22;10824;51.632;4.950;2023-04-21T13:20:14;18.20;1.00
21331;DHT22;10824;51.632;4.950;2023-04-21T13:22:48;18.20;1.00
21331;DHT22;10824;51.632;4.950;2023-04-21T13:25:16;17.90;1.00
21331;DHT22;10824;51.632;4.950;2023-04-21T13:27:44;17.70;1.00
21331;DHT22;10824;51.632;4.950;2023-04-21T13:30:13;17.50;1.00
21331;DHT22;10824;51.632;4.950;2023-04-21T13:32:44;17.60;1.00
21331;DHT22;10824;51.632;4.950;2023-04-21T13:35:14;18.00;1.00
21331;DHT22;10824;51.632;4.950;2023-04-21T13:37:42;18.10;1.00
21331;DHT22;10824;51.632;4.950;2023-04-21T13:40:10;18.30;1.00
21331;DHT22;10824;51.632;4.950;2023-04-21T13:42:38;18.30;1.00
21331;DHT22;10824;51.632;4.950;2023-04-21T13:45:09;18.10;1.00
21331;DHT22;10824;51.632;4.950;2023-04-21T13:47:37;18.10;1.00
21331;DHT22;10824;51.632;4.950;2023-04-21T13:50:05;18.10;1.00
21331;DHT22;10824;51.632;4.950;2023-04-21T13:52:33;18.20;1.00
21331;DHT22;10824;51.632;4.950;2023-04-21T13:55:02;18.50;1.00
21331;DHT22;10824;51.632;4.950;2023-04-21T13:57:31;18.80;1.00
21331;DHT22;10824;51.632;4.950;2023-04-21T13:59:58;18.90;1.00
21331;DHT22;10824;51.632;4.950;2023-04-21T14:02:25;18.80;1.00
21331;DHT22;10824;51.632;4.950;2023-04-21T14:04:53;18.80;1.00
21331;DHT22;10824;51.632;4.950;2023-04-21T14:07:20;18.80;1.00
21331;DHT22;10824;51.632;4.950;2023-04-21T14:09:51;18.90;1.00
21331;DHT22;10824;51.632;4.950;2023-04-21T14:12:21;18.80;1.00
21331;DHT22;10824;51.632;4.950;2023-04-21T14:14:50;18.60;1.00
21331;DHT22;10824;51.632;4.950;2023-04-21T14:17:19;18.90;1.00
21331;DHT22;10824;51.632;4.950;2023-04-21T14:19:47;19.00;1.00
21331;DHT22;10824;51.632;4.950;2023-04-21T14:22:14;18.80;1.00
21331;DHT22;10824;51.632;4.950;2023-04-21T14:24:41;18.90;1.00
21331;DHT22;10824;51.632;4.950;2023-04-21T14:27:09;19.10;1.00
21331;DHT22;10824;51.632;4.950;2023-04-21T14:29:36;19.00;1.00
21331;DHT22;10824;51.632;4.950;2023-04-21T14:32:03;18.60;1.00
21331;DHT22;10824;51.632;4.950;2023-04-21T14:34:31;18.30;1.00
21331;DHT22;10824;51.632;4.950;2023-04-21T14:36:58;18.30;1.00
21331;DHT22;10824;51.632;4.950;2023-04-21T14:39:26;18.50;1.00
21331;DHT22;10824;51.632;4.950;2023-04-21T14:41:53;18.50;1.00
21331;DHT22;10824;51.632;4.950;2023-04-21T14:44:20;18.20;1.00
21331;DHT22;10824;51.632;4.950;2023-04-21T14:46:48;18.20;1.00
21331;DHT22;10824;51.632;4.950;2023-04-21T14:49:31;18.40;1.00
21331;DHT22;10824;51.632;4.950;2023-04-21T14:52:00;18.70;1.00
21331;DHT22;10824;51.632;4.950;2023-04-21T14:54:27;19.20;1.00
21331;DHT22;10824;51.632;4.950;2023-04-21T14:56:55;19.10;1.00
21331;DHT22;10824;51.632;4.950;2023-04-21T14:59:43;19.00;1.00
21331;DHT22;10824;51.632;4.950;2023-04-21T15:02:12;19.00;1.00
21331;DHT22;10824;51.632;4.950;2023-04-21T15:04:40;19.00;1.00
21331;DHT22;10824;51.632;4.950;2023-04-21T15:07:07;18.90;1.00
21331;DHT22;10824;51.632;4.950;2023-04-21T15:09:35;18.60;1.00
21331;DHT22;10824;51.632;4.950;2023-04-21T15:12:04;18.60;1.00
21331;DHT22;10824;51.632;4.950;2023-04-21T15:14:32;18.60;1.00
21331;DHT22;10824;51.632;4.950;2023-04-21T15:16:59;18.60;1.00
21331;DHT22;10824;51.632;4.950;2023-04-21T15:19:26;18.30;1.00
21331;DHT22;10824;51.632;4.950;2023-04-21T15:21:53;18.20;1.00
21331;DHT22;10824;51.632;4.950;2023-04-21T15:24:21;18.10;1.00
21331;DHT22;10824;51.632;4.950;2023-04-21T15:26:50;17.90;1.00
21331;DHT22;10824;51.632;4.950;2023-04-21T15:29:17;17.80;1.00
21331;DHT22;10824;51.632;4.950;2023-04-21T15:31:45;17.60;1.00
21331;DHT22;10824;51.632;4.950;2023-04-21T15:34:12;17.60;1.00
21331;DHT22;10824;51.632;4.950;2023-04-21T15:36:39;17.60;1.00
21331;DHT22;10824;51.632;4.950;2023-04-21T15:39:07;17.60;1.00
21331;DHT22;10824;51.632;4.950;2023-04-21T15:41:36;17.40;1.00
21331;DHT22;10824;51.632;4.950;2023-04-21T15:44:04;17.30;1.00
21331;DHT22;10824;51.632;4.950;2023-04-21T15:46:33;17.30;1.00
21331;DHT22;10824;51.632;4.950;2023-04-21T15:49:01;17.20;1.00
21331;DHT22;10824;51.632;4.950;2023-04-21T15:51:39;17.20;1.00
21331;DHT22;10824;51.632;4.950;2023-04-21T15:54:06;17.20;1.00
21331;DHT22;10824;51.632;4.950;2023-04-21T15:56:34;17.20;1.00
21331;DHT22;10824;51.632;4.950;2023-04-21T15:59:01;17.20;1.00
21331;DHT22;10824;51.632;4.950;2023-04-21T16:01:29;17.10;1.00